sensor_id;sensor_type;location;lat;lon;timestamp;pressure;altitude;pressure_sealevel;temperature;humidity
73242;BME280;65659;49.234;-2.094;2024-03-23T00:54:19;100857.12;;;10.31;47.23
73242;BME280;65659;49.234;-2.094;2024-03-23T00:56:45;100853.24;;;10.20;47.52
73242;BME280;65659;49.234;-2.094;2024-03-23T00:59:10;100855.20;;;10.15;47.60
73242;BME280;65659;49.234;-2.094;2024-03-23T01:01:36;100867.02;;;10.24;47.33
73242;BME280;65659;49.234;-2.094;2024-03-23T01:04:01;100857.03;;;10.28;47.75
73242;BME280;65659;49.234;-2.094;2024-03-23T01:06:26;100848.60;;;10.29;47.74
73242;BME280;65659;49.234;-2.094;2024-03-23T01:08:51;100853.67;;;9.93;47.67
73242;BME280;65659;49.234;-2.094;2024-03-23T01:11:16;100853.53;;;9.95;47.30
73242;BME280;65659;49.234;-2.094;2024-03-23T01:13:41;100852.03;;;10.18;47.39
73242;BME280;65659;49.234;-2.094;2024-03-23T01:16:07;100850.97;;;10.14;47.65
73242;BME280;65659;49.234;-2.094;2024-03-23T01:18:33;100849.96;;;10.04;47.68
73242;BME280;65659;49.234;-2.094;2024-03-23T01:20:58;100846.05;;;10.05;48.00
73242;BME280;65659;49.234;-2.094;2024-03-23T01:23:23;100852.70;;;10.07;48.21
73242;BME280;65659;49.234;-2.094;2024-03-23T01:25:52;100846.43;;;10.26;47.98
73242;BME280;65659;49.234;-2.094;2024-03-23T01:28:13;100839.41;;;10.50;48.00
73242;BME280;65659;49.234;-2.094;2024-03-23T01:30:39;100848.33;;;10.13;47.67
73242;BME280;65659;49.234;-2.094;2024-03-23T01:33:04;100838.04;;;10.21;47.63
73242;BME280;65659;49.234;-2.094;2024-03-23T01:35:29;100842.83;;;10.28;47.45
73242;BME280;65659;49.234;-2.094;2024-03-23T01:37:54;100842.70;;;10.19;46.70
73242;BME280;65659;49.234;-2.094;2024-03-23T01:40:20;100852.03;;;10.59;46.71
73242;BME280;65659;49.234;-2.094;2024-03-23T01:42:55;100844.02;;;10.77;46.62
73242;BME280;65659;49.234;-2.094;2024-03-23T01:45:10;100849.15;;;10.18;47.11
73242;BME280;65659;49.234;-2.094;2024-03-23T01:47:35;100848.22;;;10.21;47.08
73242;BME280;65659;49.234;-2.094;2024-03-23T01:50:00;100841.52;;;10.22;47.04
73242;BME280;65659;49.234;-2.094;2024-03-23T01:52:26;100845.14;;;10.62;46.58
73242;BME280;65659;49.234;-2.094;2024-03-23T01:54:51;100846.09;;;10.28;46.41
73242;BME280;65659;49.234;-2.094;2024-03-23T01:57:17;100842.72;;;10.51;46.40
73242;BME280;65659;49.234;-2.094;2024-03-23T01:59:42;100833.67;;;10.53;46.07
73242;BME280;65659;49.234;-2.094;2024-03-23T02:02:07;100839.42;;;10.51;45.92
73242;BME280;65659;49.234;-2.094;2024-03-23T02:04:32;100836.90;;;10.45;45.87
73242;BME280;65659;49.234;-2.094;2024-03-23T02:06:57;100851.48;;;10.53;45.36
73242;BME280;65659;49.234;-2.094;2024-03-23T02:09:22;100844.57;;;10.26;45.44
73242;BME280;65659;49.234;-2.094;2024-03-23T02:11:48;100848.91;;;10.55;45.36
73242;BME280;65659;49.234;-2.094;2024-03-23T02:14:13;100843.77;;;10.66;45.15
73242;BME280;65659;49.234;-2.094;2024-03-23T02:16:39;100838.16;;;10.45;45.20
73242;BME280;65659;49.234;-2.094;2024-03-23T02:19:04;100841.02;;;10.51;45.10
73242;BME280;65659;49.234;-2.094;2024-03-23T02:21:29;100837.11;;;10.08;45.13
73242;BME280;65659;49.234;-2.094;2024-03-23T02:23:55;100839.88;;;10.40;45.04
73242;BME280;65659;49.234;-2.094;2024-03-23T02:26:19;100839.67;;;10.48;45.00
73242;BME280;65659;49.234;-2.094;2024-03-23T02:28:45;100843.37;;;10.29;45.37
73242;BME280;65659;49.234;-2.094;2024-03-23T02:31:11;100843.74;;;10.60;45.27
73242;BME280;65659;49.234;-2.094;2024-03-23T02:33:35;100835.67;;;10.17;45.20
73242;BME280;65659;49.234;-2.094;2024-03-23T02:36:00;100837.71;;;10.36;44.83
73242;BME280;65659;49.234;-2.094;2024-03-23T02:38:25;100832.06;;;10.43;43.98
73242;BME280;65659;49.234;-2.094;2024-03-23T02:40:50;100839.68;;;10.38;43.46
73242;BME280;65659;49.234;-2.094;2024-03-23T02:43:16;100834.48;;;10.56;42.85
73242;BME280;65659;49.234;-2.094;2024-03-23T02:45:41;100845.75;;;10.36;42.57
73242;BME280;65659;49.234;-2.094;2024-03-23T02:48:06;100839.32;;;10.33;42.18
73242;BME280;65659;49.234;-2.094;2024-03-23T02:50:31;100845.29;;;10.02;42.46
73242;BME280;65659;49.234;-2.094;2024-03-23T02:52:56;100844.05;;;10.26;42.14
73242;BME280;65659;49.234;-2.094;2024-03-23T02:55:21;100856.74;;;9.84;42.24
73242;BME280;65659;49.234;-2.094;2024-03-23T02:57:46;100841.82;;;10.03;41.96
73242;BME280;65659;49.234;-2.094;2024-03-23T03:00:12;100841.03;;;10.23;42.08
73242;BME280;65659;49.234;-2.094;2024-03-23T03:02:36;100844.81;;;9.96;42.34
73242;BME280;65659;49.234;-2.094;2024-03-23T03:05:01;100836.96;;;10.27;42.47
73242;BME280;65659;49.234;-2.094;2024-03-23T03:07:27;100838.04;;;10.24;42.50
73242;BME280;65659;49.234;-2.094;2024-03-23T03:09:51;100843.61;;;10.23;42.62
73242;BME280;65659;49.234;-2.094;2024-03-23T03:12:16;100842.05;;;10.17;42.65
73242;BME280;65659;49.234;-2.094;2024-03-23T03:14:41;100842.40;;;10.07;42.83
73242;BME280;65659;49.234;-2.094;2024-03-23T03:17:07;100837.92;;;10.25;42.74
73242;BME280;65659;49.234;-2.094;2024-03-23T03:19:32;100839.83;;;10.27;43.54
73242;BME280;65659;49.234;-2.094;2024-03-23T03:21:57;100840.15;;;10.00;43.73
73242;BME280;65659;49.234;-2.094;2024-03-23T03:24:22;100835.98;;;10.25;43.58
73242;BME280;65659;49.234;-2.094;2024-03-23T03:26:47;100836.43;;;9.97;43.79
73242;BME280;65659;49.234;-2.094;2024-03-23T03:29:13;100849.69;;;10.10;43.97
73242;BME280;65659;49.234;-2.094;2024-03-23T03:31:37;100840.70;;;9.88;43.78
73242;BME280;65659;49.234;-2.094;2024-03-23T03:34:02;100838.26;;;9.76;44.13
73242;BME280;65659;49.234;-2.094;2024-03-23T03:36:28;100838.47;;;10.03;43.99
73242;BME280;65659;49.234;-2.094;2024-03-23T03:38:53;100836.71;;;9.76;43.93
73242;BME280;65659;49.234;-2.094;2024-03-23T03:41:18;100836.01;;;9.96;43.98
73242;BME280;65659;49.234;-2.094;2024-03-23T03:43:43;100837.02;;;9.97;43.79
73242;BME280;65659;49.234;-2.094;2024-03-23T03:46:08;100840.36;;;9.95;43.59
73242;BME280;65659;49.234;-2.094;2024-03-23T03:48:33;100827.09;;;10.15;43.62
73242;BME280;65659;49.234;-2.094;2024-03-23T03:50:59;100824.03;;;10.18;43.62
73242;BME280;65659;49.234;-2.094;2024-03-23T03:53:24;100834.08;;;10.20;43.58
73242;BME280;65659;49.234;-2.094;2024-03-23T03:55:49;100838.04;;;10.01;43.59
73242;BME280;65659;49.234;-2.094;2024-03-23T03:58:14;100838.52;;;10.22;43.77
73242;BME280;65659;49.234;-2.094;2024-03-23T04:00:39;100843.79;;;9.99;43.92
73242;BME280;65659;49.234;-2.094;2024-03-23T04:03:04;100839.85;;;10.26;44.09
73242;BME280;65659;49.234;-2.094;2024-03-23T04:05:29;100836.75;;;9.82;43.52
73242;BME280;65659;49.234;-2.094;2024-03-23T04:07:55;100834.13;;;10.17;43.34
73242;BME280;65659;49.234;-2.094;2024-03-23T04:10:20;100837.62;;;9.91;43.36
73242;BME280;65659;49.234;-2.094;2024-03-23T04:12:45;100836.66;;;10.02;42.83
73242;BME280;65659;49.234;-2.094;2024-03-23T04:15:10;100840.54;;;10.35;42.41
73242;BME280;65659;49.234;-2.094;2024-03-23T04:17:36;100831.38;;;10.41;42.28
73242;BME280;65659;49.234;-2.094;2024-03-23T04:20:01;100836.22;;;10.18;42.77
73242;BME280;65659;49.234;-2.094;2024-03-23T04:22:26;100829.57;;;10.39;42.62
73242;BME280;65659;49.234;-2.094;2024-03-23T04:24:51;100836.53;;;10.07;42.83
73242;BME280;65659;49.234;-2.094;2024-03-23T04:27:16;100835.56;;;10.39;42.85
73242;BME280;65659;49.234;-2.094;2024-03-23T04:29:41;100833.47;;;10.18;42.89
73242;BME280;65659;49.234;-2.094;2024-03-23T04:32:07;100830.73;;;10.34;42.82
73242;BME280;65659;49.234;-2.094;2024-03-23T04:34:32;100827.73;;;10.33;43.27
73242;BME280;65659;49.234;-2.094;2024-03-23T04:36:57;100834.63;;;10.36;43.52
73242;BME280;65659;49.234;-2.094;2024-03-23T04:39:22;100830.55;;;10.26;43.44
73242;BME280;65659;49.234;-2.094;2024-03-23T04:41:47;100835.35;;;10.15;43.51
73242;BME280;65659;49.234;-2.094;2024-03-23T04:44:12;100832.46;;;10.37;42.94
73242;BME280;65659;49.234;-2.094;2024-03-23T04:46:37;100821.47;;;10.37;43.17
73242;BME280;65659;49.234;-2.094;2024-03-23T04:49:02;100825.26;;;10.18;42.78
73242;BME280;65659;49.234;-2.094;2024-03-23T04:51:35;100835.20;;;10.12;42.62
73242;BME280;65659;49.234;-2.094;2024-03-23T04:53:53;100825.15;;;10.39;42.01
73242;BME280;65659;49.234;-2.094;2024-03-23T04:56:18;100831.71;;;10.07;41.46
73242;BME280;65659;49.234;-2.094;2024-03-23T04:58:43;100822.30;;;10.00;41.42
73242;BME280;65659;49.234;-2.094;2024-03-23T05:01:09;100834.68;;;10.19;41.32
73242;BME280;65659;49.234;-2.094;2024-03-23T05:03:34;100829.71;;;10.07;41.35
73242;BME280;65659;49.234;-2.094;2024-03-23T05:05:59;100831.70;;;10.52;41.48
73242;BME280;65659;49.234;-2.094;2024-03-23T05:08:24;100832.10;;;10.03;41.65
73242;BME280;65659;49.234;-2.094;2024-03-23T05:10:49;100828.79;;;10.34;41.73
73242;BME280;65659;49.234;-2.094;2024-03-23T05:13:15;100832.43;;;10.54;41.74
73242;BME280;65659;49.234;-2.094;2024-03-23T05:15:40;100833.39;;;10.22;41.88
73242;BME280;65659;49.234;-2.094;2024-03-23T05:18:06;100839.93;;;10.27;41.68
73242;BME280;65659;49.234;-2.094;2024-03-23T05:20:31;100834.14;;;9.77;41.25
73242;BME280;65659;49.234;-2.094;2024-03-23T05:22:56;100840.58;;;10.45;41.33
73242;BME280;65659;49.234;-2.094;2024-03-23T05:25:22;100845.31;;;10.04;40.70
73242;BME280;65659;49.234;-2.094;2024-03-23T05:27:48;100841.09;;;10.14;40.92
73242;BME280;65659;49.234;-2.094;2024-03-23T05:30:14;100834.88;;;10.17;40.87
73242;BME280;65659;49.234;-2.094;2024-03-23T05:32:38;100852.53;;;10.17;40.75
73242;BME280;65659;49.234;-2.094;2024-03-23T05:35:04;100853.41;;;10.17;40.93
73242;BME280;65659;49.234;-2.094;2024-03-23T05:37:30;100850.06;;;9.77;41.58
73242;BME280;65659;49.234;-2.094;2024-03-23T05:39:54;100843.16;;;10.10;41.90
73242;BME280;65659;49.234;-2.094;2024-03-23T05:42:20;100842.29;;;10.25;41.90
73242;BME280;65659;49.234;-2.094;2024-03-23T05:44:45;100855.70;;;10.18;42.03
73242;BME280;65659;49.234;-2.094;2024-03-23T05:47:11;100840.17;;;10.23;42.00
73242;BME280;65659;49.234;-2.094;2024-03-23T05:49:35;100845.67;;;10.23;41.95
73242;BME280;65659;49.234;-2.094;2024-03-23T05:52:01;100842.82;;;10.17;42.14
73242;BME280;65659;49.234;-2.094;2024-03-23T05:54:27;100857.74;;;10.54;41.97
73242;BME280;65659;49.234;-2.094;2024-03-23T05:56:54;100846.93;;;10.37;41.92
73242;BME280;65659;49.234;-2.094;2024-03-23T05:59:17;100859.35;;;10.31;42.27
73242;BME280;65659;49.234;-2.094;2024-03-23T06:01:42;100852.62;;;10.30;41.84
73242;BME280;65659;49.234;-2.094;2024-03-23T06:04:07;100849.38;;;10.30;41.36
73242;BME280;65659;49.234;-2.094;2024-03-23T06:06:32;100825.69;;;10.00;41.58
73242;BME280;65659;49.234;-2.094;2024-03-23T06:08:57;100859.16;;;10.26;41.78
73242;BME280;65659;49.234;-2.094;2024-03-23T06:11:22;100838.17;;;10.26;41.44
73242;BME280;65659;49.234;-2.094;2024-03-23T06:13:47;100873.39;;;10.18;41.54
73242;BME280;65659;49.234;-2.094;2024-03-23T06:16:12;100851.12;;;9.90;41.87
73242;BME280;65659;49.234;-2.094;2024-03-23T06:18:37;100861.21;;;10.18;41.91
73242;BME280;65659;49.234;-2.094;2024-03-23T06:21:03;100852.26;;;10.11;41.76
73242;BME280;65659;49.234;-2.094;2024-03-23T06:23:28;100865.91;;;10.17;41.34
73242;BME280;65659;49.234;-2.094;2024-03-23T06:25:53;100851.62;;;10.19;41.11
73242;BME280;65659;49.234;-2.094;2024-03-23T06:28:18;100859.00;;;10.17;41.31
73242;BME280;65659;49.234;-2.094;2024-03-23T06:30:43;100858.83;;;10.15;41.56
73242;BME280;65659;49.234;-2.094;2024-03-23T06:33:08;100860.29;;;10.44;41.83
73242;BME280;65659;49.234;-2.094;2024-03-23T06:35:33;100859.13;;;10.37;41.78
73242;BME280;65659;49.234;-2.094;2024-03-23T06:37:58;100857.22;;;10.46;41.86
73242;BME280;65659;49.234;-2.094;2024-03-23T06:40:24;100846.52;;;10.31;42.04
73242;BME280;65659;49.234;-2.094;2024-03-23T06:42:49;100844.37;;;10.45;42.03
73242;BME280;65659;49.234;-2.094;2024-03-23T06:45:14;100858.06;;;10.81;42.06
73242;BME280;65659;49.234;-2.094;2024-03-23T06:47:39;100856.60;;;10.64;42.26
73242;BME280;65659;49.234;-2.094;2024-03-23T06:50:06;100848.73;;;10.78;42.09
73242;BME280;65659;49.234;-2.094;2024-03-23T06:52:30;100836.13;;;10.25;41.89
73242;BME280;65659;49.234;-2.094;2024-03-23T06:54:55;100833.51;;;10.43;41.43
73242;BME280;65659;49.234;-2.094;2024-03-23T06:57:20;100836.98;;;10.39;41.24
73242;BME280;65659;49.234;-2.094;2024-03-23T06:59:45;100842.20;;;10.42;41.46
73242;BME280;65659;49.234;-2.094;2024-03-23T07:02:10;100839.14;;;10.88;41.81
73242;BME280;65659;49.234;-2.094;2024-03-23T07:04:36;100854.09;;;10.72;42.98
73242;BME280;65659;49.234;-2.094;2024-03-23T07:07:01;100846.30;;;9.94;44.20
73242;BME280;65659;49.234;-2.094;2024-03-23T07:09:28;100843.37;;;10.07;44.50
73242;BME280;65659;49.234;-2.094;2024-03-23T07:11:53;100844.37;;;9.85;44.49
73242;BME280;65659;49.234;-2.094;2024-03-23T07:14:16;100837.36;;;10.14;44.16
73242;BME280;65659;49.234;-2.094;2024-03-23T07:16:41;100836.54;;;9.97;43.64
73242;BME280;65659;49.234;-2.094;2024-03-23T07:19:07;100848.03;;;10.36;42.29
73242;BME280;65659;49.234;-2.094;2024-03-23T07:21:32;100823.57;;;9.80;42.14
73242;BME280;65659;49.234;-2.094;2024-03-23T07:23:57;100836.98;;;10.20;41.64
73242;BME280;65659;49.234;-2.094;2024-03-23T07:26:22;100844.26;;;10.40;41.54
73242;BME280;65659;49.234;-2.094;2024-03-23T07:28:47;100830.12;;;10.60;41.74
73242;BME280;65659;49.234;-2.094;2024-03-23T07:31:13;100826.38;;;10.80;42.31
73242;BME280;65659;49.234;-2.094;2024-03-23T07:33:43;100836.73;;;10.65;43.08
73242;BME280;65659;49.234;-2.094;2024-03-23T07:36:03;100813.16;;;10.66;43.35
73242;BME280;65659;49.234;-2.094;2024-03-23T07:38:29;100813.41;;;10.75;43.35
73242;BME280;65659;49.234;-2.094;2024-03-23T07:41:04;100821.22;;;10.76;43.39
73242;BME280;65659;49.234;-2.094;2024-03-23T07:43:19;100819.85;;;10.72;43.14
73242;BME280;65659;49.234;-2.094;2024-03-23T07:45:52;100822.94;;;11.03;42.74
73242;BME280;65659;49.234;-2.094;2024-03-23T07:48:09;100822.28;;;10.77;42.58
73242;BME280;65659;49.234;-2.094;2024-03-23T07:50:34;100824.26;;;10.76;42.33
73242;BME280;65659;49.234;-2.094;2024-03-23T07:52:59;100831.78;;;10.83;41.94
73242;BME280;65659;49.234;-2.094;2024-03-23T07:55:24;100823.92;;;10.82;41.75
73242;BME280;65659;49.234;-2.094;2024-03-23T07:57:51;100827.25;;;10.64;42.02
73242;BME280;65659;49.234;-2.094;2024-03-23T08:00:16;100832.23;;;10.88;41.56
73242;BME280;65659;49.234;-2.094;2024-03-23T08:02:40;100824.68;;;10.66;41.76
73242;BME280;65659;49.234;-2.094;2024-03-23T08:05:06;100834.11;;;10.85;41.94
73242;BME280;65659;49.234;-2.094;2024-03-23T08:07:30;100851.78;;;10.90;41.72
73242;BME280;65659;49.234;-2.094;2024-03-23T08:09:56;100835.14;;;11.23;41.62
73242;BME280;65659;49.234;-2.094;2024-03-23T08:12:21;100824.19;;;11.61;41.56
73242;BME280;65659;49.234;-2.094;2024-03-23T08:14:46;100850.82;;;11.58;41.16
73242;BME280;65659;49.234;-2.094;2024-03-23T08:17:11;100840.29;;;11.60;41.07
73242;BME280;65659;49.234;-2.094;2024-03-23T08:19:36;100834.46;;;11.69;40.38
73242;BME280;65659;49.234;-2.094;2024-03-23T08:22:01;100831.64;;;11.60;40.49
73242;BME280;65659;49.234;-2.094;2024-03-23T08:24:26;100839.58;;;12.05;39.57
73242;BME280;65659;49.234;-2.094;2024-03-23T08:26:51;100859.46;;;11.73;39.51
73242;BME280;65659;49.234;-2.094;2024-03-23T08:29:17;100868.30;;;11.19;40.08
73242;BME280;65659;49.234;-2.094;2024-03-23T08:31:41;100861.82;;;11.32;40.56
73242;BME280;65659;49.234;-2.094;2024-03-23T08:34:06;100859.97;;;10.84;41.80
73242;BME280;65659;49.234;-2.094;2024-03-23T08:36:31;100860.14;;;10.57;42.58
73242;BME280;65659;49.234;-2.094;2024-03-23T08:38:56;100853.66;;;10.81;42.81
73242;BME280;65659;49.234;-2.094;2024-03-23T08:41:21;100856.57;;;10.78;42.64
73242;BME280;65659;49.234;-2.094;2024-03-23T08:43:46;100854.29;;;10.87;42.52
73242;BME280;65659;49.234;-2.094;2024-03-23T08:46:13;100850.83;;;10.84;42.51
73242;BME280;65659;49.234;-2.094;2024-03-23T08:48:39;100837.87;;;10.92;42.34
73242;BME280;65659;49.234;-2.094;2024-03-23T08:51:03;100839.57;;;11.22;42.18
73242;BME280;65659;49.234;-2.094;2024-03-23T08:53:33;100837.92;;;11.20;41.82
73242;BME280;65659;49.234;-2.094;2024-03-23T08:55:53;100837.11;;;11.59;41.15
73242;BME280;65659;49.234;-2.094;2024-03-23T08:58:18;100841.39;;;12.00;41.47
73242;BME280;65659;49.234;-2.094;2024-03-23T09:00:43;100859.09;;;11.51;41.49
73242;BME280;65659;49.234;-2.094;2024-03-23T09:03:08;100849.58;;;11.41;41.02
73242;BME280;65659;49.234;-2.094;2024-03-23T09:05:38;100852.66;;;11.48;40.71
73242;BME280;65659;49.234;-2.094;2024-03-23T09:07:59;100848.02;;;11.55;40.80
73242;BME280;65659;49.234;-2.094;2024-03-23T09:10:24;100844.94;;;11.69;40.72
73242;BME280;65659;49.234;-2.094;2024-03-23T09:12:49;100837.17;;;11.85;40.50
73242;BME280;65659;49.234;-2.094;2024-03-23T09:15:14;100848.26;;;12.01;40.65
73242;BME280;65659;49.234;-2.094;2024-03-23T09:17:39;100841.78;;;12.07;40.41
73242;BME280;65659;49.234;-2.094;2024-03-23T09:20:06;100845.15;;;12.18;40.22
73242;BME280;65659;49.234;-2.094;2024-03-23T09:22:30;100839.01;;;12.06;40.04
73242;BME280;65659;49.234;-2.094;2024-03-23T09:24:56;100844.62;;;12.39;39.23
73242;BME280;65659;49.234;-2.094;2024-03-23T09:27:21;100853.43;;;12.18;39.07
73242;BME280;65659;49.234;-2.094;2024-03-23T09:29:46;100849.44;;;12.20;38.51
73242;BME280;65659;49.234;-2.094;2024-03-23T09:32:12;100840.43;;;12.28;38.52
73242;BME280;65659;49.234;-2.094;2024-03-23T09:34:38;100870.67;;;12.12;38.30
73242;BME280;65659;49.234;-2.094;2024-03-23T09:37:04;100852.77;;;12.31;37.95
73242;BME280;65659;49.234;-2.094;2024-03-23T09:39:29;100833.61;;;12.06;38.23
73242;BME280;65659;49.234;-2.094;2024-03-23T09:41:57;100838.11;;;12.58;38.56
73242;BME280;65659;49.234;-2.094;2024-03-23T09:44:20;100834.90;;;12.78;37.88
73242;BME280;65659;49.234;-2.094;2024-03-23T09:46:46;100833.19;;;12.83;37.92
73242;BME280;65659;49.234;-2.094;2024-03-23T09:49:11;100828.70;;;12.47;37.94
73242;BME280;65659;49.234;-2.094;2024-03-23T09:51:37;100838.64;;;12.54;37.73
73242;BME280;65659;49.234;-2.094;2024-03-23T09:54:03;100828.67;;;12.42;38.20
73242;BME280;65659;49.234;-2.094;2024-03-23T09:56:28;100816.93;;;12.78;37.55
73242;BME280;65659;49.234;-2.094;2024-03-23T09:59:01;100818.06;;;12.90;37.37
73242;BME280;65659;49.234;-2.094;2024-03-23T10:01:20;100819.63;;;12.71;37.49
73242;BME280;65659;49.234;-2.094;2024-03-23T10:03:45;100818.96;;;12.82;37.26
73242;BME280;65659;49.234;-2.094;2024-03-23T10:06:10;100819.26;;;12.81;37.63
73242;BME280;65659;49.234;-2.094;2024-03-23T10:08:36;100809.43;;;12.85;37.98
73242;BME280;65659;49.234;-2.094;2024-03-23T10:11:12;100797.88;;;12.92;38.07
73242;BME280;65659;49.234;-2.094;2024-03-23T10:13:28;100788.19;;;13.17;37.41
73242;BME280;65659;49.234;-2.094;2024-03-23T10:15:57;100795.14;;;13.13;37.43
73242;BME280;65659;49.234;-2.094;2024-03-23T10:18:18;100793.37;;;13.10;37.21
73242;BME280;65659;49.234;-2.094;2024-03-23T10:20:42;100793.12;;;13.09;36.83
73242;BME280;65659;49.234;-2.094;2024-03-23T10:23:15;100793.27;;;13.32;36.69
73242;BME280;65659;49.234;-2.094;2024-03-23T10:25:33;100792.69;;;13.43;37.40
73242;BME280;65659;49.234;-2.094;2024-03-23T10:28:00;100803.89;;;13.53;38.14
73242;BME280;65659;49.234;-2.094;2024-03-23T10:30:25;100804.43;;;13.66;38.40
73242;BME280;65659;49.234;-2.094;2024-03-23T10:32:50;100795.86;;;13.18;38.51
73242;BME280;65659;49.234;-2.094;2024-03-23T10:35:17;100789.06;;;13.27;38.21
73242;BME280;65659;49.234;-2.094;2024-03-23T10:37:42;100785.62;;;13.22;38.17
73242;BME280;65659;49.234;-2.094;2024-03-23T10:40:10;100797.15;;;13.41;37.44
73242;BME280;65659;49.234;-2.094;2024-03-23T10:42:33;100785.09;;;13.15;37.58
73242;BME280;65659;49.234;-2.094;2024-03-23T10:44:58;100775.31;;;13.47;37.62
73242;BME280;65659;49.234;-2.094;2024-03-23T10:47:23;100776.02;;;13.50;37.61
73242;BME280;65659;49.234;-2.094;2024-03-23T10:49:48;100768.05;;;13.50;37.30
73242;BME280;65659;49.234;-2.094;2024-03-23T10:52:14;100756.38;;;13.23;38.58
73242;BME280;65659;49.234;-2.094;2024-03-23T10:54:41;100765.23;;;13.20;40.14
73242;BME280;65659;49.234;-2.094;2024-03-23T10:57:09;100764.30;;;12.83;40.66
73242;BME280;65659;49.234;-2.094;2024-03-23T10:59:32;100761.81;;;13.01;40.59
73242;BME280;65659;49.234;-2.094;2024-03-23T11:01:58;100756.39;;;13.07;40.18
73242;BME280;65659;49.234;-2.094;2024-03-23T11:04:32;100750.69;;;12.99;39.67
73242;BME280;65659;49.234;-2.094;2024-03-23T11:06:48;100761.83;;;13.31;39.07
73242;BME280;65659;49.234;-2.094;2024-03-23T11:11:39;100743.44;;;13.49;37.74
73242;BME280;65659;49.234;-2.094;2024-03-23T11:14:19;100736.02;;;13.67;37.69
73242;BME280;65659;49.234;-2.094;2024-03-23T11:16:30;100727.72;;;13.51;37.27
73242;BME280;65659;49.234;-2.094;2024-03-23T11:23:46;100719.72;;;13.70;35.47
73242;BME280;65659;49.234;-2.094;2024-03-23T11:26:12;100711.08;;;13.75;34.78
73242;BME280;65659;49.234;-2.094;2024-03-23T11:28:37;100713.03;;;14.41;34.73
73242;BME280;65659;49.234;-2.094;2024-03-23T11:31:09;100719.00;;;14.19;34.89
73242;BME280;65659;49.234;-2.094;2024-03-23T11:33:29;100721.25;;;13.95;35.36
73242;BME280;65659;49.234;-2.094;2024-03-23T11:35:54;100736.71;;;14.14;35.92
73242;BME280;65659;49.234;-2.094;2024-03-23T11:38:19;100772.35;;;13.76;37.46
73242;BME280;65659;49.234;-2.094;2024-03-23T11:40:46;100754.84;;;13.06;41.56
73242;BME280;65659;49.234;-2.094;2024-03-23T11:43:12;100748.11;;;12.45;43.21
73242;BME280;65659;49.234;-2.094;2024-03-23T11:45:36;100759.02;;;11.88;44.42
73242;BME280;65659;49.234;-2.094;2024-03-23T11:48:04;100742.59;;;11.18;45.18
73242;BME280;65659;49.234;-2.094;2024-03-23T11:50:27;100723.13;;;10.73;46.14
73242;BME280;65659;49.234;-2.094;2024-03-23T11:52:51;100719.21;;;10.72;47.03
73242;BME280;65659;49.234;-2.094;2024-03-23T11:55:17;100709.65;;;10.91;47.58
73242;BME280;65659;49.234;-2.094;2024-03-23T11:57:42;100712.67;;;10.72;47.93
73242;BME280;65659;49.234;-2.094;2024-03-23T12:00:20;100710.13;;;10.94;47.78
73242;BME280;65659;49.234;-2.094;2024-03-23T12:02:34;100713.30;;;11.39;47.95
73242;BME280;65659;49.234;-2.094;2024-03-23T12:04:58;100696.26;;;11.70;47.91
73242;BME280;65659;49.234;-2.094;2024-03-23T12:07:23;100692.63;;;11.88;48.26
73242;BME280;65659;49.234;-2.094;2024-03-23T12:12:16;100666.18;;;12.40;45.70
73242;BME280;65659;49.234;-2.094;2024-03-23T12:14:40;100682.91;;;12.56;46.21
73242;BME280;65659;49.234;-2.094;2024-03-23T12:17:10;100654.81;;;12.29;44.55
73242;BME280;65659;49.234;-2.094;2024-03-23T12:19:31;100659.09;;;12.76;43.34
73242;BME280;65659;49.234;-2.094;2024-03-23T12:21:57;100673.98;;;13.17;43.09
73242;BME280;65659;49.234;-2.094;2024-03-23T12:24:22;100668.88;;;13.59;42.07
73242;BME280;65659;49.234;-2.094;2024-03-23T12:26:48;100662.59;;;13.99;40.57
73242;BME280;65659;49.234;-2.094;2024-03-23T12:29:13;100665.90;;;14.13;40.76
73242;BME280;65659;49.234;-2.094;2024-03-23T12:31:39;100657.76;;;13.95;40.42
73242;BME280;65659;49.234;-2.094;2024-03-23T12:34:04;100654.15;;;14.74;40.42
73242;BME280;65659;49.234;-2.094;2024-03-23T12:36:30;100645.46;;;14.16;39.69
73242;BME280;65659;49.234;-2.094;2024-03-23T12:38:55;100627.14;;;14.31;39.57
73242;BME280;65659;49.234;-2.094;2024-03-23T12:41:20;100633.50;;;14.49;39.66
73242;BME280;65659;49.234;-2.094;2024-03-23T12:43:45;100607.92;;;14.42;38.98
73242;BME280;65659;49.234;-2.094;2024-03-23T12:46:11;100624.70;;;14.06;39.39
73242;BME280;65659;49.234;-2.094;2024-03-23T12:48:36;100612.73;;;13.92;39.75
73242;BME280;65659;49.234;-2.094;2024-03-23T12:51:02;100626.44;;;13.56;40.48
73242;BME280;65659;49.234;-2.094;2024-03-23T12:53:28;100630.34;;;13.40;41.77
73242;BME280;65659;49.234;-2.094;2024-03-23T12:55:53;100651.41;;;12.69;42.89
73242;BME280;65659;49.234;-2.094;2024-03-23T12:58:18;100623.05;;;12.07;44.46
73242;BME280;65659;49.234;-2.094;2024-03-23T13:00:44;100612.86;;;12.14;45.49
73242;BME280;65659;49.234;-2.094;2024-03-23T13:03:13;100607.25;;;11.83;46.11
73242;BME280;65659;49.234;-2.094;2024-03-23T13:05:35;100611.93;;;12.10;46.49
73242;BME280;65659;49.234;-2.094;2024-03-23T13:08:00;100593.07;;;11.99;46.73
73242;BME280;65659;49.234;-2.094;2024-03-23T13:10:25;100599.23;;;11.90;47.06
73242;BME280;65659;49.234;-2.094;2024-03-23T13:12:52;100588.12;;;12.24;46.67
73242;BME280;65659;49.234;-2.094;2024-03-23T13:15:16;100570.09;;;11.88;47.10
73242;BME280;65659;49.234;-2.094;2024-03-23T13:17:42;100582.60;;;12.32;47.22
73242;BME280;65659;49.234;-2.094;2024-03-23T13:20:08;100581.25;;;12.66;46.85
73242;BME280;65659;49.234;-2.094;2024-03-23T13:22:33;100578.64;;;12.81;46.17
73242;BME280;65659;49.234;-2.094;2024-03-23T13:24:59;100582.62;;;12.72;45.91
73242;BME280;65659;49.234;-2.094;2024-03-23T13:27:25;100574.75;;;13.01;45.97
73242;BME280;65659;49.234;-2.094;2024-03-23T13:29:50;100580.90;;;13.07;45.48
73242;BME280;65659;49.234;-2.094;2024-03-23T13:32:16;100573.56;;;13.05;44.74